sensor_id;sensor_type;location;lat;lon;timestamp;P1;durP1;ratioP1;P2;durP2;ratioP2
76409;SDS011;65238;42.662;23.280;2023-04-15T00:00:13;12.70;;;7.03;;
76409;SDS011;65238;42.662;23.280;2023-04-15T00:02:39;13.50;;;5.80;;
76409;SDS011;65238;42.662;23.280;2023-04-15T00:05:05;12.30;;;5.78;;
76409;SDS011;65238;42.662;23.280;2023-04-15T00:07:30;10.13;;;6.13;;
76409;SDS011;65238;42.662;23.280;2023-04-15T00:09:57;12.02;;;5.85;;
76409;SDS011;65238;42.662;23.280;2023-04-15T00:12:23;11.80;;;6.50;;
76409;SDS011;65238;42.662;23.280;2023-04-15T00:14:49;11.40;;;6.28;;
76409;SDS011;65238;42.662;23.280;2023-04-15T00:17:15;15.85;;;6.70;;
76409;SDS011;65238;42.662;23.280;2023-04-15T00:19:41;17.33;;;7.55;;
76409;SDS011;65238;42.662;23.280;2023-04-15T00:22:06;14.70;;;6.90;;
76409;SDS011;65238;42.662;23.280;2023-04-15T00:24:32;17.40;;;7.35;;
76409;SDS011;65238;42.662;23.280;2023-04-15T00:26:58;12.52;;;6.72;;
76409;SDS011;65238;42.662;23.280;2023-04-15T00:29:24;15.10;;;6.10;;
76409;SDS011;65238;42.662;23.280;2023-04-15T00:31:49;14.00;;;5.75;;
76409;SDS011;65238;42.662;23.280;2023-04-15T00:34:15;10.95;;;5.60;;
76409;SDS011;65238;42.662;23.280;2023-04-15T00:36:40;11.15;;;5.63;;
76409;SDS011;65238;42.662;23.280;2023-04-15T00:39:06;12.15;;;5.45;;
76409;SDS011;65238;42.662;23.280;2023-04-15T00:41:31;8.18;;;5.50;;
76409;SDS011;65238;42.662;23.280;2023-04-15T00:43:58;11.68;;;5.38;;
76409;SDS011;65238;42.662;23.280;2023-04-15T00:46:24;14.00;;;5.75;;
76409;SDS011;65238;42.662;23.280;2023-04-15T00:48:51;8.88;;;4.50;;
76409;SDS011;65238;42.662;23.280;2023-04-15T00:51:18;10.07;;;5.50;;
76409;SDS011;65238;42.662;23.280;2023-04-15T00:53:44;10.05;;;5.43;;
76409;SDS011;65238;42.662;23.280;2023-04-15T00:56:09;9.38;;;5.53;;
76409;SDS011;65238;42.662;23.280;2023-04-15T00:58:34;9.00;;;4.63;;
76409;SDS011;65238;42.662;23.280;2023-04-15T01:01:01;12.23;;;4.80;;
76409;SDS011;65238;42.662;23.280;2023-04-15T01:03:26;11.45;;;5.65;;
76409;SDS011;65238;42.662;23.280;2023-04-15T01:05:53;10.57;;;5.00;;
76409;SDS011;65238;42.662;23.280;2023-04-15T01:08:25;10.77;;;5.68;;
76409;SDS011;65238;42.662;23.280;2023-04-15T01:10:52;10.80;;;4.85;;
76409;SDS011;65238;42.662;23.280;2023-04-15T01:13:19;10.60;;;4.70;;
76409;SDS011;65238;42.662;23.280;2023-04-15T01:15:45;9.98;;;5.20;;
76409;SDS011;65238;42.662;23.280;2023-04-15T01:18:11;11.13;;;5.28;;
76409;SDS011;65238;42.662;23.280;2023-04-15T01:20:37;11.82;;;5.32;;
76409;SDS011;65238;42.662;23.280;2023-04-15T01:23:02;10.82;;;5.93;;
76409;SDS011;65238;42.662;23.280;2023-04-15T01:25:32;8.48;;;4.85;;
76409;SDS011;65238;42.662;23.280;2023-04-15T01:27:58;12.30;;;5.78;;
76409;SDS011;65238;42.662;23.280;2023-04-15T01:30:24;8.23;;;4.85;;
76409;SDS011;65238;42.662;23.280;2023-04-15T01:32:51;10.45;;;5.18;;
76409;SDS011;65238;42.662;23.280;2023-04-15T01:35:16;10.75;;;4.82;;
76409;SDS011;65238;42.662;23.280;2023-04-15T01:37:42;8.68;;;4.50;;
76409;SDS011;65238;42.662;23.280;2023-04-15T01:40:07;7.90;;;4.28;;
76409;SDS011;65238;42.662;23.280;2023-04-15T01:42:34;8.40;;;3.95;;
76409;SDS011;65238;42.662;23.280;2023-04-15T01:45:00;6.35;;;3.83;;
76409;SDS011;65238;42.662;23.280;2023-04-15T01:47:26;8.50;;;3.60;;
76409;SDS011;65238;42.662;23.280;2023-04-15T01:49:51;6.95;;;3.45;;
76409;SDS011;65238;42.662;23.280;2023-04-15T01:52:17;8.07;;;3.70;;
76409;SDS011;65238;42.662;23.280;2023-04-15T01:54:42;7.50;;;4.00;;
76409;SDS011;65238;42.662;23.280;2023-04-15T01:57:08;7.43;;;3.95;;
76409;SDS011;65238;42.662;23.280;2023-04-15T01:59:34;8.50;;;3.65;;
76409;SDS011;65238;42.662;23.280;2023-04-15T02:01:59;8.02;;;3.47;;
76409;SDS011;65238;42.662;23.280;2023-04-15T02:04:25;7.68;;;4.55;;
76409;SDS011;65238;42.662;23.280;2023-04-15T02:06:51;5.85;;;3.20;;
76409;SDS011;65238;42.662;23.280;2023-04-15T02:09:17;7.30;;;3.55;;
76409;SDS011;65238;42.662;23.280;2023-04-15T02:11:42;7.18;;;3.40;;
76409;SDS011;65238;42.662;23.280;2023-04-15T02:14:08;5.05;;;3.63;;
76409;SDS011;65238;42.662;23.280;2023-04-15T02:16:33;7.07;;;3.17;;
76409;SDS011;65238;42.662;23.280;2023-04-15T02:18:59;5.32;;;2.83;;
76409;SDS011;65238;42.662;23.280;2023-04-15T02:21:28;8.88;;;2.63;;
76409;SDS011;65238;42.662;23.280;2023-04-15T02:23:54;9.07;;;3.03;;
76409;SDS011;65238;42.662;23.280;2023-04-15T02:26:19;6.18;;;2.78;;
76409;SDS011;65238;42.662;23.280;2023-04-15T02:28:46;7.53;;;3.22;;
76409;SDS011;65238;42.662;23.280;2023-04-15T02:31:12;10.32;;;3.30;;
76409;SDS011;65238;42.662;23.280;2023-04-15T02:33:37;5.80;;;2.85;;
76409;SDS011;65238;42.662;23.280;2023-04-15T02:36:02;5.78;;;2.78;;
76409;SDS011;65238;42.662;23.280;2023-04-15T02:38:28;6.38;;;3.28;;
76409;SDS011;65238;42.662;23.280;2023-04-15T02:40:55;9.98;;;3.67;;
76409;SDS011;65238;42.662;23.280;2023-04-15T02:43:21;7.85;;;3.92;;
76409;SDS011;65238;42.662;23.280;2023-04-15T02:45:46;7.30;;;3.88;;
76409;SDS011;65238;42.662;23.280;2023-04-15T02:48:12;7.68;;;3.83;;
76409;SDS011;65238;42.662;23.280;2023-04-15T02:50:37;5.85;;;3.65;;
76409;SDS011;65238;42.662;23.280;2023-04-15T02:53:04;10.52;;;3.72;;
76409;SDS011;65238;42.662;23.280;2023-04-15T02:55:30;8.52;;;4.13;;
76409;SDS011;65238;42.662;23.280;2023-04-15T02:57:55;9.85;;;3.53;;
76409;SDS011;65238;42.662;23.280;2023-04-15T03:00:23;5.57;;;3.22;;
76409;SDS011;65238;42.662;23.280;2023-04-15T03:02:49;8.90;;;3.55;;
76409;SDS011;65238;42.662;23.280;2023-04-15T03:05:20;6.75;;;4.10;;
76409;SDS011;65238;42.662;23.280;2023-04-15T03:07:46;7.35;;;4.00;;
76409;SDS011;65238;42.662;23.280;2023-04-15T03:10:11;9.25;;;4.47;;
76409;SDS011;65238;42.662;23.280;2023-04-15T03:12:37;13.35;;;6.88;;
76409;SDS011;65238;42.662;23.280;2023-04-15T03:15:02;12.02;;;5.53;;
76409;SDS011;65238;42.662;23.280;2023-04-15T03:17:28;11.90;;;5.03;;
76409;SDS011;65238;42.662;23.280;2023-04-15T03:19:53;11.73;;;5.05;;
76409;SDS011;65238;42.662;23.280;2023-04-15T03:22:18;10.38;;;6.07;;
76409;SDS011;65238;42.662;23.280;2023-04-15T03:24:44;10.95;;;6.55;;
76409;SDS011;65238;42.662;23.280;2023-04-15T03:27:09;10.50;;;5.22;;
76409;SDS011;65238;42.662;23.280;2023-04-15T03:29:35;11.45;;;4.88;;
76409;SDS011;65238;42.662;23.280;2023-04-15T03:32:00;13.77;;;5.70;;
76409;SDS011;65238;42.662;23.280;2023-04-15T03:34:26;11.90;;;5.65;;
76409;SDS011;65238;42.662;23.280;2023-04-15T03:36:51;10.70;;;5.50;;
76409;SDS011;65238;42.662;23.280;2023-04-15T03:39:16;12.07;;;5.82;;
76409;SDS011;65238;42.662;23.280;2023-04-15T03:41:42;13.02;;;6.00;;
76409;SDS011;65238;42.662;23.280;2023-04-15T03:44:07;8.82;;;5.10;;
76409;SDS011;65238;42.662;23.280;2023-04-15T03:46:33;10.52;;;5.70;;
76409;SDS011;65238;42.662;23.280;2023-04-15T03:48:58;10.98;;;6.00;;
76409;SDS011;65238;42.662;23.280;2023-04-15T03:51:23;11.75;;;5.85;;
76409;SDS011;65238;42.662;23.280;2023-04-15T03:53:49;12.95;;;5.88;;
76409;SDS011;65238;42.662;23.280;2023-04-15T03:56:14;10.15;;;5.78;;
76409;SDS011;65238;42.662;23.280;2023-04-15T03:58:39;11.73;;;6.32;;
76409;SDS011;65238;42.662;23.280;2023-04-15T04:01:05;12.55;;;6.47;;
76409;SDS011;65238;42.662;23.280;2023-04-15T04:03:31;11.90;;;5.65;;
76409;SDS011;65238;42.662;23.280;2023-04-15T04:05:56;10.88;;;5.75;;
76409;SDS011;65238;42.662;23.280;2023-04-15T04:08:21;10.10;;;5.65;;
76409;SDS011;65238;42.662;23.280;2023-04-15T04:10:47;14.10;;;5.75;;
76409;SDS011;65238;42.662;23.280;2023-04-15T04:13:12;8.82;;;6.03;;
76409;SDS011;65238;42.662;23.280;2023-04-15T04:15:38;10.50;;;5.18;;
76409;SDS011;65238;42.662;23.280;2023-04-15T04:18:03;13.80;;;6.20;;
76409;SDS011;65238;42.662;23.280;2023-04-15T04:20:28;10.13;;;5.10;;
76409;SDS011;65238;42.662;23.280;2023-04-15T04:22:56;11.90;;;5.50;;
76409;SDS011;65238;42.662;23.280;2023-04-15T04:25:21;9.57;;;5.10;;
76409;SDS011;65238;42.662;23.280;2023-04-15T04:27:47;16.63;;;6.35;;
76409;SDS011;65238;42.662;23.280;2023-04-15T04:30:12;9.80;;;5.50;;
76409;SDS011;65238;42.662;23.280;2023-04-15T04:32:38;10.73;;;5.07;;
76409;SDS011;65238;42.662;23.280;2023-04-15T04:35:03;9.52;;;5.47;;
76409;SDS011;65238;42.662;23.280;2023-04-15T04:37:29;9.95;;;5.28;;
76409;SDS011;65238;42.662;23.280;2023-04-15T04:39:54;9.55;;;5.68;;
76409;SDS011;65238;42.662;23.280;2023-04-15T04:42:20;10.88;;;5.45;;
76409;SDS011;65238;42.662;23.280;2023-04-15T04:44:46;9.40;;;5.68;;
76409;SDS011;65238;42.662;23.280;2023-04-15T04:47:11;9.02;;;5.28;;
76409;SDS011;65238;42.662;23.280;2023-04-15T04:49:36;12.00;;;5.97;;
76409;SDS011;65238;42.662;23.280;2023-04-15T04:52:02;12.63;;;6.50;;
76409;SDS011;65238;42.662;23.280;2023-04-15T04:54:27;11.93;;;6.80;;
76409;SDS011;65238;42.662;23.280;2023-04-15T04:56:54;12.05;;;6.60;;
76409;SDS011;65238;42.662;23.280;2023-04-15T04:59:21;11.27;;;6.47;;
76409;SDS011;65238;42.662;23.280;2023-04-15T05:01:47;10.95;;;6.43;;
76409;SDS011;65238;42.662;23.280;2023-04-15T05:04:13;15.73;;;7.25;;
76409;SDS011;65238;42.662;23.280;2023-04-15T05:06:38;10.43;;;7.10;;
76409;SDS011;65238;42.662;23.280;2023-04-15T05:09:03;14.25;;;7.60;;
76409;SDS011;65238;42.662;23.280;2023-04-15T05:11:29;19.13;;;10.18;;
76409;SDS011;65238;42.662;23.280;2023-04-15T05:13:54;23.52;;;13.27;;
76409;SDS011;65238;42.662;23.280;2023-04-15T05:16:20;24.67;;;15.45;;
76409;SDS011;65238;42.662;23.280;2023-04-15T05:18:47;19.70;;;12.55;;
76409;SDS011;65238;42.662;23.280;2023-04-15T05:21:12;20.23;;;9.82;;
76409;SDS011;65238;42.662;23.280;2023-04-15T05:23:38;17.52;;;8.70;;
76409;SDS011;65238;42.662;23.280;2023-04-15T05:26:03;14.00;;;8.10;;
76409;SDS011;65238;42.662;23.280;2023-04-15T05:28:28;13.20;;;7.35;;
76409;SDS011;65238;42.662;23.280;2023-04-15T05:30:54;17.70;;;8.25;;
76409;SDS011;65238;42.662;23.280;2023-04-15T05:33:20;16.00;;;9.30;;
76409;SDS011;65238;42.662;23.280;2023-04-15T05:35:45;14.93;;;8.27;;
76409;SDS011;65238;42.662;23.280;2023-04-15T05:38:11;15.50;;;8.85;;
76409;SDS011;65238;42.662;23.280;2023-04-15T05:40:36;16.05;;;8.07;;
76409;SDS011;65238;42.662;23.280;2023-04-15T05:43:01;12.48;;;7.43;;
76409;SDS011;65238;42.662;23.280;2023-04-15T05:45:27;14.75;;;7.70;;
76409;SDS011;65238;42.662;23.280;2023-04-15T05:47:52;12.50;;;7.15;;
76409;SDS011;65238;42.662;23.280;2023-04-15T05:50:18;14.57;;;7.57;;
76409;SDS011;65238;42.662;23.280;2023-04-15T05:52:45;16.63;;;7.63;;
76409;SDS011;65238;42.662;23.280;2023-04-15T05:55:10;13.73;;;7.22;;
76409;SDS011;65238;42.662;23.280;2023-04-15T05:57:36;13.82;;;7.78;;
76409;SDS011;65238;42.662;23.280;2023-04-15T06:00:02;12.93;;;6.65;;
76409;SDS011;65238;42.662;23.280;2023-04-15T06:02:29;10.98;;;5.90;;
76409;SDS011;65238;42.662;23.280;2023-04-15T06:04:55;14.52;;;7.47;;
76409;SDS011;65238;42.662;23.280;2023-04-15T06:07:21;14.50;;;6.93;;
76409;SDS011;65238;42.662;23.280;2023-04-15T06:09:47;12.55;;;6.95;;
76409;SDS011;65238;42.662;23.280;2023-04-15T06:12:13;14.32;;;7.47;;
76409;SDS011;65238;42.662;23.280;2023-04-15T06:14:39;11.18;;;6.30;;
76409;SDS011;65238;42.662;23.280;2023-04-15T06:17:05;11.00;;;6.53;;
76409;SDS011;65238;42.662;23.280;2023-04-15T06:19:31;9.95;;;5.55;;
76409;SDS011;65238;42.662;23.280;2023-04-15T06:21:57;10.82;;;6.22;;
76409;SDS011;65238;42.662;23.280;2023-04-15T06:24:22;11.20;;;5.18;;
76409;SDS011;65238;42.662;23.280;2023-04-15T06:26:48;8.40;;;5.78;;
76409;SDS011;65238;42.662;23.280;2023-04-15T06:29:13;9.88;;;5.93;;
76409;SDS011;65238;42.662;23.280;2023-04-15T06:31:38;13.13;;;6.13;;
76409;SDS011;65238;42.662;23.280;2023-04-15T06:34:04;10.55;;;5.95;;
76409;SDS011;65238;42.662;23.280;2023-04-15T06:36:30;10.55;;;5.70;;
76409;SDS011;65238;42.662;23.280;2023-04-15T06:38:56;10.75;;;5.80;;
76409;SDS011;65238;42.662;23.280;2023-04-15T06:41:21;12.48;;;6.20;;
76409;SDS011;65238;42.662;23.280;2023-04-15T06:43:47;12.23;;;6.05;;
76409;SDS011;65238;42.662;23.280;2023-04-15T06:46:14;13.88;;;6.05;;
76409;SDS011;65238;42.662;23.280;2023-04-15T06:48:39;8.63;;;6.03;;
76409;SDS011;65238;42.662;23.280;2023-04-15T06:51:05;10.02;;;5.60;;
76409;SDS011;65238;42.662;23.280;2023-04-15T06:53:31;12.93;;;6.18;;
76409;SDS011;65238;42.662;23.280;2023-04-15T06:55:57;13.30;;;6.78;;
76409;SDS011;65238;42.662;23.280;2023-04-15T06:58:22;10.68;;;6.20;;
76409;SDS011;65238;42.662;23.280;2023-04-15T07:00:48;11.27;;;6.38;;
76409;SDS011;65238;42.662;23.280;2023-04-15T07:03:13;12.90;;;6.57;;
76409;SDS011;65238;42.662;23.280;2023-04-15T07:05:39;8.48;;;5.72;;
76409;SDS011;65238;42.662;23.280;2023-04-15T07:08:05;9.88;;;6.50;;
76409;SDS011;65238;42.662;23.280;2023-04-15T07:10:32;9.48;;;6.03;;
76409;SDS011;65238;42.662;23.280;2023-04-15T07:12:58;10.68;;;5.93;;
76409;SDS011;65238;42.662;23.280;2023-04-15T07:15:23;9.85;;;5.63;;
76409;SDS011;65238;42.662;23.280;2023-04-15T07:17:49;8.30;;;4.95;;
76409;SDS011;65238;42.662;23.280;2023-04-15T07:20:14;12.57;;;5.47;;
76409;SDS011;65238;42.662;23.280;2023-04-15T07:22:39;11.00;;;5.55;;
76409;SDS011;65238;42.662;23.280;2023-04-15T07:25:05;9.90;;;5.07;;
76409;SDS011;65238;42.662;23.280;2023-04-15T07:27:31;9.75;;;4.38;;
76409;SDS011;65238;42.662;23.280;2023-04-15T07:29:57;11.38;;;4.28;;
76409;SDS011;65238;42.662;23.280;2023-04-15T07:32:22;12.70;;;4.53;;
76409;SDS011;65238;42.662;23.280;2023-04-15T07:34:47;10.82;;;4.88;;
76409;SDS011;65238;42.662;23.280;2023-04-15T07:37:13;10.55;;;5.32;;
76409;SDS011;65238;42.662;23.280;2023-04-15T07:39:39;13.23;;;5.22;;
76409;SDS011;65238;42.662;23.280;2023-04-15T07:42:04;12.18;;;5.15;;
76409;SDS011;65238;42.662;23.280;2023-04-15T07:44:30;9.68;;;4.72;;
76409;SDS011;65238;42.662;23.280;2023-04-15T07:46:55;8.85;;;4.07;;
76409;SDS011;65238;42.662;23.280;2023-04-15T07:49:21;10.30;;;4.03;;
76409;SDS011;65238;42.662;23.280;2023-04-15T07:51:46;15.07;;;6.32;;
76409;SDS011;65238;42.662;23.280;2023-04-15T07:54:13;10.15;;;4.45;;
76409;SDS011;65238;42.662;23.280;2023-04-15T07:56:38;9.35;;;4.10;;
76409;SDS011;65238;42.662;23.280;2023-04-15T07:59:04;9.13;;;4.47;;
76409;SDS011;65238;42.662;23.280;2023-04-15T08:01:30;10.55;;;3.85;;
76409;SDS011;65238;42.662;23.280;2023-04-15T08:03:57;9.07;;;3.58;;
76409;SDS011;65238;42.662;23.280;2023-04-15T08:06:23;9.40;;;3.40;;
76409;SDS011;65238;42.662;23.280;2023-04-15T08:08:48;5.72;;;3.28;;
76409;SDS011;65238;42.662;23.280;2023-04-15T08:11:13;7.78;;;3.40;;
76409;SDS011;65238;42.662;23.280;2023-04-15T08:13:39;8.52;;;3.47;;
76409;SDS011;65238;42.662;23.280;2023-04-15T08:16:24;7.68;;;3.70;;
76409;SDS011;65238;42.662;23.280;2023-04-15T08:18:52;6.03;;;3.40;;
76409;SDS011;65238;42.662;23.280;2023-04-15T08:21:19;9.57;;;3.45;;
76409;SDS011;65238;42.662;23.280;2023-04-15T08:23:45;6.55;;;2.90;;
76409;SDS011;65238;42.662;23.280;2023-04-15T08:26:12;5.57;;;2.35;;
76409;SDS011;65238;42.662;23.280;2023-04-15T08:28:39;3.42;;;2.25;;
76409;SDS011;65238;42.662;23.280;2023-04-15T08:31:05;4.75;;;2.38;;
76409;SDS011;65238;42.662;23.280;2023-04-15T08:33:31;5.50;;;2.03;;
76409;SDS011;65238;42.662;23.280;2023-04-15T08:35:56;3.90;;;1.88;;
76409;SDS011;65238;42.662;23.280;2023-04-15T08:38:22;5.57;;;2.40;;
76409;SDS011;65238;42.662;23.280;2023-04-15T08:40:48;5.88;;;2.05;;
76409;SDS011;65238;42.662;23.280;2023-04-15T08:43:14;5.05;;;1.60;;
76409;SDS011;65238;42.662;23.280;2023-04-15T08:45:46;2.58;;;1.42;;
76409;SDS011;65238;42.662;23.280;2023-04-15T08:48:14;2.85;;;1.35;;
76409;SDS011;65238;42.662;23.280;2023-04-15T08:50:42;2.42;;;1.10;;
76409;SDS011;65238;42.662;23.280;2023-04-15T08:53:09;1.95;;;0.80;;
76409;SDS011;65238;42.662;23.280;2023-04-15T08:55:35;2.15;;;0.90;;
76409;SDS011;65238;42.662;23.280;2023-04-15T08:58:08;1.65;;;0.80;;
76409;SDS011;65238;42.662;23.280;2023-04-15T09:00:35;2.17;;;0.80;;
76409;SDS011;65238;42.662;23.280;2023-04-15T09:03:01;1.92;;;0.90;;
76409;SDS011;65238;42.662;23.280;2023-04-15T09:05:30;2.08;;;0.68;;
76409;SDS011;65238;42.662;23.280;2023-04-15T09:07:56;2.25;;;0.60;;
76409;SDS011;65238;42.662;23.280;2023-04-15T09:10:22;2.95;;;0.65;;
76409;SDS011;65238;42.662;23.280;2023-04-15T09:12:47;6.18;;;0.68;;
76409;SDS011;65238;42.662;23.280;2023-04-15T09:15:13;3.55;;;0.60;;
76409;SDS011;65238;42.662;23.280;2023-04-15T09:17:42;1.40;;;0.50;;
76409;SDS011;65238;42.662;23.280;2023-04-15T09:22:34;1.00;;;0.50;;
76409;SDS011;65238;42.662;23.280;2023-04-15T09:25:00;0.80;;;0.38;;
76409;SDS011;65238;42.662;23.280;2023-04-15T09:27:26;3.10;;;0.45;;
76409;SDS011;65238;42.662;23.280;2023-04-15T09:29:52;1.38;;;0.40;;
76409;SDS011;65238;42.662;23.280;2023-04-15T09:32:18;1.67;;;0.55;;
76409;SDS011;65238;42.662;23.280;2023-04-15T09:34:45;0.40;;;0.30;;
76409;SDS011;65238;42.662;23.280;2023-04-15T09:37:12;1.75;;;0.43;;
76409;SDS011;65238;42.662;23.280;2023-04-15T09:39:49;1.88;;;0.60;;
76409;SDS011;65238;42.662;23.280;2023-04-15T09:42:16;3.28;;;0.70;;
76409;SDS011;65238;42.662;23.280;2023-04-15T09:44:48;0.95;;;0.43;;
76409;SDS011;65238;42.662;23.280;2023-04-15T09:47:26;3.58;;;0.60;;
76409;SDS011;65238;42.662;23.280;2023-04-15T09:49:59;3.38;;;0.88;;
76409;SDS011;65238;42.662;23.280;2023-04-15T09:52:25;3.45;;;0.80;;
76409;SDS011;65238;42.662;23.280;2023-04-15T09:54:55;2.13;;;0.75;;
76409;SDS011;65238;42.662;23.280;2023-04-15T09:57:21;0.65;;;0.47;;
76409;SDS011;65238;42.662;23.280;2023-04-15T09:59:48;1.27;;;0.50;;
76409;SDS011;65238;42.662;23.280;2023-04-15T10:02:13;1.33;;;0.68;;
76409;SDS011;65238;42.662;23.280;2023-04-15T10:04:40;2.33;;;0.60;;
76409;SDS011;65238;42.662;23.280;2023-04-15T10:07:07;2.30;;;0.70;;
76409;SDS011;65238;42.662;23.280;2023-04-15T10:09:34;1.52;;;0.70;;
76409;SDS011;65238;42.662;23.280;2023-04-15T10:12:01;1.88;;;0.73;;
76409;SDS011;65238;42.662;23.280;2023-04-15T10:14:29;0.75;;;0.52;;
76409;SDS011;65238;42.662;23.280;2023-04-15T10:16:57;2.45;;;0.82;;
76409;SDS011;65238;42.662;23.280;2023-04-15T10:19:25;2.15;;;0.50;;
76409;SDS011;65238;42.662;23.280;2023-04-15T10:21:51;0.75;;;0.50;;
76409;SDS011;65238;42.662;23.280;2023-04-15T10:24:17;1.83;;;0.73;;
76409;SDS011;65238;42.662;23.280;2023-04-15T10:26:43;3.03;;;0.63;;
76409;SDS011;65238;42.662;23.280;2023-04-15T10:29:09;1.75;;;0.70;;
76409;SDS011;65238;42.662;23.280;2023-04-15T10:31:34;1.83;;;0.70;;
76409;SDS011;65238;42.662;23.280;2023-04-15T10:34:02;3.88;;;1.55;;
76409;SDS011;65238;42.662;23.280;2023-04-15T10:36:30;1.23;;;0.70;;
76409;SDS011;65238;42.662;23.280;2023-04-15T10:38:56;2.38;;;0.90;;
76409;SDS011;65238;42.662;23.280;2023-04-15T10:41:22;3.08;;;0.75;;
76409;SDS011;65238;42.662;23.280;2023-04-15T10:46:34;1.75;;;0.68;;
76409;SDS011;65238;42.662;23.280;2023-04-15T10:49:09;2.00;;;0.70;;
76409;SDS011;65238;42.662;23.280;2023-04-15T10:51:39;1.63;;;0.63;;
76409;SDS011;65238;42.662;23.280;2023-04-15T10:56:43;3.25;;;0.65;;
76409;SDS011;65238;42.662;23.280;2023-04-15T10:59:09;2.35;;;0.85;;
76409;SDS011;65238;42.662;23.280;2023-04-15T11:01:53;1.27;;;0.70;;
76409;SDS011;65238;42.662;23.280;2023-04-15T11:12:38;3.17;;;1.10;;
76409;SDS011;65238;42.662;23.280;2023-04-15T11:18:13;1.60;;;0.65;;
76409;SDS011;65238;42.662;23.280;2023-04-15T11:21:04;1.33;;;0.55;;
76409;SDS011;65238;42.662;23.280;2023-04-15T11:23:39;1.85;;;0.75;;
76409;SDS011;65238;42.662;23.280;2023-04-15T11:26:10;1.90;;;1.00;;
76409;SDS011;65238;42.662;23.280;2023-04-15T11:28:37;1.70;;;0.90;;
76409;SDS011;65238;42.662;23.280;2023-04-15T11:31:06;2.72;;;0.80;;
76409;SDS011;65238;42.662;23.280;2023-04-15T11:33:34;4.28;;;1.38;;
76409;SDS011;65238;42.662;23.280;2023-04-15T11:36:00;3.33;;;1.10;;
76409;SDS011;65238;42.662;23.280;2023-04-15T11:38:26;3.45;;;0.85;;
76409;SDS011;65238;42.662;23.280;2023-04-15T11:40:51;2.90;;;1.05;;
76409;SDS011;65238;42.662;23.280;2023-04-15T11:43:18;1.63;;;1.05;;
76409;SDS011;65238;42.662;23.280;2023-04-15T11:45:52;3.63;;;1.63;;
76409;SDS011;65238;42.662;23.280;2023-04-15T11:48:20;3.97;;;1.00;;
76409;SDS011;65238;42.662;23.280;2023-04-15T11:50:51;3.15;;;1.20;;
76409;SDS011;65238;42.662;23.280;2023-04-15T11:53:17;2.25;;;1.10;;
76409;SDS011;65238;42.662;23.280;2023-04-15T11:55:44;2.03;;;1.00;;
76409;SDS011;65238;42.662;23.280;2023-04-15T12:00:45;6.13;;;1.60;;
76409;SDS011;65238;42.662;23.280;2023-04-15T12:06:01;1.35;;;0.90;;
76409;SDS011;65238;42.662;23.280;2023-04-15T12:14:10;1.42;;;0.90;;
76409;SDS011;65238;42.662;23.280;2023-04-15T12:16:46;2.83;;;1.10;;
76409;SDS011;65238;42.662;23.280;2023-04-15T12:19:28;1.50;;;0.82;;
76409;SDS011;65238;42.662;23.280;2023-04-15T12:24:32;2.33;;;0.90;;
76409;SDS011;65238;42.662;23.280;2023-04-15T12:27:05;1.60;;;0.90;;
76409;SDS011;65238;42.662;23.280;2023-04-15T12:29:32;1.85;;;0.60;;
76409;SDS011;65238;42.662;23.280;2023-04-15T12:32:05;4.15;;;0.90;;
76409;SDS011;65238;42.662;23.280;2023-04-15T12:34:40;3.22;;;0.80;;
76409;SDS011;65238;42.662;23.280;2023-04-15T12:37:11;1.85;;;1.08;;
76409;SDS011;65238;42.662;23.280;2023-04-15T12:39:43;1.30;;;0.70;;
76409;SDS011;65238;42.662;23.280;2023-04-15T12:42:10;3.58;;;1.10;;
76409;SDS011;65238;42.662;23.280;2023-04-15T12:44:36;2.35;;;0.95;;
76409;SDS011;65238;42.662;23.280;2023-04-15T12:47:02;4.50;;;0.57;;
76409;SDS011;65238;42.662;23.280;2023-04-15T12:49:27;1.20;;;0.65;;
76409;SDS011;65238;42.662;23.280;2023-04-15T12:51:54;2.55;;;0.63;;
76409;SDS011;65238;42.662;23.280;2023-04-15T12:54:21;3.45;;;0.80;;
76409;SDS011;65238;42.662;23.280;2023-04-15T12:56:47;2.63;;;0.65;;
76409;SDS011;65238;42.662;23.280;2023-04-15T12:59:14;1.08;;;0.50;;
76409;SDS011;65238;42.662;23.280;2023-04-15T13:01:40;1.65;;;0.60;;
76409;SDS011;65238;42.662;23.280;2023-04-15T13:04:05;4.50;;;0.80;;
76409;SDS011;65238;42.662;23.280;2023-04-15T13:06:31;2.08;;;0.50;;
76409;SDS011;65238;42.662;23.280;2023-04-15T13:09:00;3.15;;;0.85;;
76409;SDS011;65238;42.662;23.280;2023-04-15T13:11:27;4.05;;;2.38;;
76409;SDS011;65238;42.662;23.280;2023-04-15T13:13:55;4.43;;;1.25;;
76409;SDS011;65238;42.662;23.280;2023-04-15T13:16:21;1.50;;;0.80;;
76409;SDS011;65238;42.662;23.280;2023-04-15T13:18:47;3.80;;;0.80;;
76409;SDS011;65238;42.662;23.280;2023-04-15T13:21:13;4.78;;;0.88;;
76409;SDS011;65238;42.662;23.280;2023-04-15T13:23:40;1.95;;;0.55;;
76409;SDS011;65238;42.662;23.280;2023-04-15T13:26:06;2.53;;;0.70;;
76409;SDS011;65238;42.662;23.280;2023-04-15T13:28:32;2.15;;;0.77;;
76409;SDS011;65238;42.662;23.280;2023-04-15T13:30:57;1.90;;;0.55;;
76409;SDS011;65238;42.662;23.280;2023-04-15T13:33:24;2.55;;;0.70;;
76409;SDS011;65238;42.662;23.280;2023-04-15T13:35:50;1.15;;;0.50;;
76409;SDS011;65238;42.662;23.280;2023-04-15T13:38:15;1.20;;;0.60;;
76409;SDS011;65238;42.662;23.280;2023-04-15T13:40:40;1.60;;;0.70;;
76409;SDS011;65238;42.662;23.280;2023-04-15T13:43:06;2.78;;;0.80;;
76409;SDS011;65238;42.662;23.280;2023-04-15T13:45:31;1.63;;;0.77;;
76409;SDS011;65238;42.662;23.280;2023-04-15T13:47:57;2.67;;;0.77;;
76409;SDS011;65238;42.662;23.280;2023-04-15T13:50:23;3.38;;;0.98;;
76409;SDS011;65238;42.662;23.280;2023-04-15T13:52:48;1.50;;;0.50;;
76409;SDS011;65238;42.662;23.280;2023-04-15T13:55:13;2.60;;;0.82;;
76409;SDS011;65238;42.662;23.280;2023-04-15T13:57:39;1.15;;;0.50;;
76409;SDS011;65238;42.662;23.280;2023-04-15T14:00:04;0.52;;;0.40;;
76409;SDS011;65238;42.662;23.280;2023-04-15T14:02:31;1.65;;;0.50;;
76409;SDS011;65238;42.662;23.280;2023-04-15T14:04:56;5.18;;;0.90;;
76409;SDS011;65238;42.662;23.280;2023-04-15T14:07:21;3.22;;;0.90;;
76409;SDS011;65238;42.662;23.280;2023-04-15T14:09:47;1.55;;;0.73;;
76409;SDS011;65238;42.662;23.280;2023-04-15T14:12:12;1.10;;;0.70;;
76409;SDS011;65238;42.662;23.280;2023-04-15T14:14:38;2.35;;;0.60;;
76409;SDS011;65238;42.662;23.280;2023-04-15T14:17:04;4.05;;;0.80;;
76409;SDS011;65238;42.662;23.280;2023-04-15T14:19:29;2.28;;;0.63;;
76409;SDS011;65238;42.662;23.280;2023-04-15T14:21:57;3.45;;;0.68;;
76409;SDS011;65238;42.662;23.280;2023-04-15T14:24:23;1.23;;;0.82;;
76409;SDS011;65238;42.662;23.280;2023-04-15T14:26:48;2.97;;;0.60;;
76409;SDS011;65238;42.662;23.280;2023-04-15T14:29:14;2.58;;;0.77;;
76409;SDS011;65238;42.662;23.280;2023-04-15T14:31:39;3.75;;;0.70;;
76409;SDS011;65238;42.662;23.280;2023-04-15T14:34:05;3.38;;;0.95;;
76409;SDS011;65238;42.662;23.280;2023-04-15T14:36:30;1.88;;;0.88;;
76409;SDS011;65238;42.662;23.280;2023-04-15T14:38:56;2.75;;;0.68;;
76409;SDS011;65238;42.662;23.280;2023-04-15T14:41:21;3.92;;;0.65;;
76409;SDS011;65238;42.662;23.280;2023-04-15T14:43:47;2.30;;;0.57;;
76409;SDS011;65238;42.662;23.280;2023-04-15T14:46:12;2.60;;;0.50;;
76409;SDS011;65238;42.662;23.280;2023-04-15T14:48:38;2.92;;;0.85;;
76409;SDS011;65238;42.662;23.280;2023-04-15T14:51:04;3.90;;;0.63;;
76409;SDS011;65238;42.662;23.280;2023-04-15T14:53:29;1.88;;;0.50;;
76409;SDS011;65238;42.662;23.280;2023-04-15T14:55:55;2.13;;;0.65;;